KCEW/CEW METAR and TAF weather

Enter ICAO airport designator
Station Type Date Time Source
KCEW METAR 2022/09/26 09:53 UTC NOAA

KCEW 260953Z AUTO 00000KT 5SM BR CLR 19/18 A2991 RMK AO2 SLP126 T01890183


Station Type Date Time Source
KCEW Decoded METAR 2022/09/26 09:53 UTC NOAA

CRESTVIEW SIKES AIRPORT, FL, United States (KCEW) 30-46N 086-31W 55M
Sep 26, 2022 - 05:53 AM EDT / 2022.09.26 0953 UTC
Wind: Calm:0
Visibility: 5 mile(s):0
Sky conditions: clear
Weather: mist
Temperature: 66.0 F (18.9 C)
Dew Point: 64.9 F (18.3 C)
Relative Humidity: 96%
Pressure (altimeter): 29.91 in. Hg (1012 hPa)
ob: KCEW 260953Z AUTO 00000KT 5SM BR CLR 19/18 A2991 RMK AO2 SLP126 T01890183
cycle: 10

Station Type Date Time Source
KCEW TAF UTC NOAA

Error!

Example: see airport list